Time,TemperatureF,DewpointF,PressureIn,WindDirection,WindDirectionDegrees,WindSpeedMPH,WindSpeedGustMPH,Humidity,HourlyPrecipIn,Conditions,Clouds,dailyrainin,SoftwareType,DateUTC
2013-08-09 00:01:00,68.0,68.0,30.03,ENE,67,0.0,3.0,100,0.01,,,0.49,,2013-08-09 04:01:00,
2013-08-09 00:12:00,68.0,68.0,30.03,ENE,67,0.0,3.0,100,0.01,,,0.49,,2013-08-09 04:12:00,
2013-08-09 00:22:00,68.0,68.0,30.02,SE,126,0.0,0.0,100,0.00,,,0.49,,2013-08-09 04:22:00,
2013-08-09 00:33:00,68.0,68.0,30.02,SE,126,0.0,0.0,100,0.00,,,0.49,,2013-08-09 04:33:00,
2013-08-09 00:53:00,68.0,68.0,30.01,ENE,77,0.0,1.0,100,0.00,,,0.49,,2013-08-09 04:53:00,
2013-08-09 01:02:00,68.0,68.0,30.01,ESE,105,0.0,7.0,100,0.00,,,0.49,,2013-08-09 05:02:00,
2013-08-09 01:22:00,68.0,68.0,30.01,East,86,0.0,0.0,100,0.00,,,0.49,,2013-08-09 05:22:00,
2013-08-09 01:33:00,68.0,68.0,30.01,East,86,0.0,0.0,100,0.00,,,0.49,,2013-08-09 05:33:00,
2013-08-09 01:43:00,68.0,68.0,30.00,East,86,0.0,0.0,100,0.00,,,0.49,,2013-08-09 05:43:00,
2013-08-09 01:52:00,68.0,68.0,30.00,East,86,0.0,0.0,100,0.00,,,0.49,,2013-08-09 05:52:00,
2013-08-09 02:01:00,68.0,68.0,30.00,East,86,0.0,0.0,100,0.00,,,0.49,,2013-08-09 06:01:00,
2013-08-09 02:22:00,68.0,68.0,29.99,ESE,103,0.0,4.0,100,0.00,,,0.49,,2013-08-09 06:22:00,
2013-08-09 02:32:00,68.0,68.0,29.99,ESE,103,0.0,0.0,100,0.00,,,0.49,,2013-08-09 06:32:00,
2013-08-09 02:43:00,68.0,68.0,29.99,SSW,201,3.0,5.0,100,0.00,,,0.49,,2013-08-09 06:43:00,
2013-08-09 02:52:00,68.0,68.0,29.99,SSW,201,3.0,5.0,100,0.00,,,0.49,,2013-08-09 06:52:00,
2013-08-09 03:01:00,68.0,68.0,29.99,SSW,201,3.0,5.0,100,0.00,,,0.49,,2013-08-09 07:01:00,
2013-08-09 03:22:00,68.0,68.0,29.99,WSW,252,2.0,10.0,100,0.01,,,0.50,,2013-08-09 07:22:00,
2013-08-09 03:33:00,68.0,68.0,29.99,WSW,239,4.0,13.0,100,0.01,,,0.50,,2013-08-09 07:33:00,
2013-08-09 03:43:00,68.0,68.0,29.99,West,259,4.0,6.0,100,0.01,,,0.50,,2013-08-09 07:43:00,
2013-08-09 03:53:00,68.0,68.0,29.99,WNW,288,4.0,5.0,100,0.00,,,0.50,,2013-08-09 07:53:00,
2013-08-09 04:02:00,68.0,68.0,29.99,NW,304,3.0,9.0,100,0.00,,,0.50,,2013-08-09 08:02:00,
2013-08-09 04:12:00,68.0,68.0,29.99,NW,304,3.0,9.0,100,0.00,,,0.50,,2013-08-09 08:12:00,
2013-08-09 04:32:00,68.0,68.0,29.99,WSW,250,2.0,9.0,100,0.02,,,0.52,,2013-08-09 08:32:00,
2013-08-09 04:43:00,68.0,68.0,29.99,NNW,331,5.0,9.0,100,0.02,,,0.52,,2013-08-09 08:43:00,
2013-08-09 04:53:00,68.0,68.0,29.99,NNW,331,5.0,9.0,100,0.02,,,0.52,,2013-08-09 08:53:00,
2013-08-09 05:02:00,68.0,68.0,29.99,NNW,331,5.0,9.0,100,0.02,,,0.52,,2013-08-09 09:02:00,
2013-08-09 05:12:00,68.0,68.0,29.99,NNW,331,5.0,9.0,100,0.02,,,0.52,,2013-08-09 09:12:00,
2013-08-09 05:32:00,68.0,68.0,29.98,WSW,247,4.0,7.0,100,0.00,,,0.52,,2013-08-09 09:32:00,
2013-08-09 05:52:00,68.0,68.0,29.99,West,270,3.0,10.0,100,0.00,,,0.52,,2013-08-09 09:52:00,
2013-08-09 06:01:00,68.0,68.0,29.99,NW,317,0.0,6.0,100,0.00,,,0.52,,2013-08-09 10:01:00,
2013-08-09 06:12:00,68.0,68.0,29.99,NW,317,0.0,6.0,100,0.00,,,0.52,,2013-08-09 10:12:00,
2013-08-09 06:32:00,68.0,68.0,29.99,NNW,330,0.0,7.0,100,0.01,,,0.53,,2013-08-09 10:32:00,
2013-08-09 06:43:00,68.0,68.0,29.99,WNW,282,2.0,9.0,100,0.01,,,0.53,,2013-08-09 10:43:00,
2013-08-09 06:53:00,68.0,68.0,29.99,West,270,0.0,5.0,100,0.01,,,0.53,,2013-08-09 10:53:00,
2013-08-09 07:02:00,68.0,68.0,29.99,West,270,0.0,5.0,100,0.01,,,0.53,,2013-08-09 11:02:00,
2013-08-09 07:11:00,68.0,68.0,29.99,West,270,0.0,5.0,100,0.01,,,0.53,,2013-08-09 11:11:00,
2013-08-09 07:53:00,68.0,68.0,29.99,West,266,0.0,0.0,100,0.07,,,0.60,,2013-08-09 11:53:00,
2013-08-09 08:02:00,69.0,69.0,29.99,SW,234,0.0,1.0,100,0.08,,,0.61,,2013-08-09 12:02:00,
2013-08-09 08:12:00,69.0,69.0,29.99,SW,234,0.0,1.0,100,0.08,,,0.61,,2013-08-09 12:12:00,
2013-08-09 08:22:00,69.0,69.0,29.99,SW,234,0.0,1.0,100,0.08,,,0.61,,2013-08-09 12:22:00,
2013-08-09 08:32:00,69.0,69.0,29.99,SSE,161,0.0,6.0,100,0.06,,,0.64,,2013-08-09 12:32:00,
2013-08-09 08:43:00,69.0,69.0,29.99,SW,223,0.0,15.0,100,0.04,,,0.64,,2013-08-09 12:43:00,
2013-08-09 08:52:00,69.0,69.0,29.99,SW,223,0.0,15.0,100,0.04,,,0.64,,2013-08-09 12:52:00,
2013-08-09 09:01:00,69.0,69.0,29.99,WNW,300,4.0,7.0,100,0.03,,,0.64,,2013-08-09 13:01:00,
2013-08-09 09:12:00,69.0,69.0,29.99,WNW,300,4.0,7.0,100,0.03,,,0.64,,2013-08-09 13:12:00,
2013-08-09 09:23:00,69.0,69.0,29.99,NNE,28,0.0,5.0,100,0.01,,,0.64,,2013-08-09 13:23:00,
2013-08-09 09:32:00,69.0,69.0,29.99,NNE,28,0.0,5.0,100,0.01,,,0.64,,2013-08-09 13:32:00,
2013-08-09 09:43:00,69.0,69.0,29.99,NNE,28,0.0,5.0,100,0.01,,,0.64,,2013-08-09 13:43:00,
2013-08-09 10:22:00,69.0,69.0,29.99,NNW,333,0.0,6.0,100,0.02,,,0.66,,2013-08-09 14:22:00,
2013-08-09 10:33:00,69.0,69.0,29.99,NNW,333,0.0,6.0,100,0.02,,,0.66,,2013-08-09 14:33:00,
2013-08-09 10:43:00,68.0,68.0,29.99,WSW,246,4.0,7.0,100,0.33,,,0.97,,2013-08-09 14:43:00,
2013-08-09 10:53:00,68.0,68.0,29.99,SW,232,2.0,5.0,100,0.34,,,0.98,,2013-08-09 14:53:00,
2013-08-09 11:02:00,68.0,68.0,29.99,WSW,244,0.0,5.0,100,0.40,,,1.05,,2013-08-09 15:02:00,
2013-08-09 11:12:00,68.0,68.0,29.99,WSW,244,0.0,5.0,100,0.40,,,1.05,,2013-08-09 15:12:00,
2013-08-09 11:22:00,68.0,68.0,30.00,WSW,239,0.0,12.0,100,0.57,,,1.23,,2013-08-09 15:22:00,
2013-08-09 11:33:00,68.0,68.0,30.00,WSW,239,0.0,12.0,100,0.57,,,1.23,,2013-08-09 15:33:00,
2013-08-09 11:44:00,68.0,68.0,29.99,NW,325,0.0,12.0,100,0.44,,,1.41,,2013-08-09 15:44:00,
2013-08-09 11:53:00,68.0,68.0,30.00,SW,229,0.0,13.0,100,0.45,,,1.43,,2013-08-09 15:53:00,
2013-08-09 12:02:00,67.0,67.0,30.00,NNW,343,1.0,13.0,100,0.44,,,1.49,,2013-08-09 16:02:00,
2013-08-09 12:22:00,67.0,67.0,30.00,WNW,293,3.0,13.0,100,0.32,,,1.55,,2013-08-09 16:22:00,
2013-08-09 12:43:00,67.0,67.0,30.00,North,355,3.0,9.0,100,0.15,,,1.56,,2013-08-09 16:43:00,
2013-08-09 13:02:00,67.0,67.0,30.00,NW,323,1.0,11.0,100,0.13,,,1.56,,2013-08-09 17:02:00,
2013-08-09 13:11:00,68.0,68.0,29.99,WNW,284,2.0,11.0,100,0.07,,,1.56,,2013-08-09 17:11:00,
2013-08-09 13:33:00,69.0,69.0,30.00,WNW,291,5.0,13.0,100,0.01,,,1.56,,2013-08-09 17:33:00,
2013-08-09 13:43:00,69.0,69.0,29.99,WSW,238,0.0,13.0,100,0.00,,,1.56,,2013-08-09 17:43:00,
2013-08-09 14:02:00,70.0,70.0,29.99,SSW,207,1.0,9.0,100,0.00,,,1.56,,2013-08-09 18:02:00,
2013-08-09 14:32:00,71.0,70.0,29.99,WNW,288,0.0,13.0,98,0.00,,,1.56,,2013-08-09 18:32:00,
2013-08-09 14:43:00,71.0,70.0,30.00,NNW,341,4.0,18.0,98,0.00,,,1.56,,2013-08-09 18:43:00,
2013-08-09 14:53:00,71.0,70.0,30.00,NNW,341,4.0,18.0,98,0.00,,,1.56,,2013-08-09 18:53:00,
2013-08-09 15:02:00,71.0,69.0,30.01,North,355,2.0,14.0,94,0.00,,,1.56,,2013-08-09 19:02:00,
2013-08-09 15:11:00,71.0,69.0,30.01,North,355,2.0,14.0,94,0.00,,,1.56,,2013-08-09 19:11:00,
2013-08-09 15:22:00,69.0,68.0,30.01,WNW,290,0.0,15.0,97,0.00,,,1.56,,2013-08-09 19:22:00,
2013-08-09 15:32:00,68.0,67.0,30.00,North,5,1.0,2.0,98,0.01,,,1.57,,2013-08-09 19:32:00,
2013-08-09 15:52:00,68.0,68.0,30.00,West,269,0.0,3.0,100,0.51,,,2.07,,2013-08-09 19:52:00,
2013-08-09 16:02:00,68.0,68.0,30.00,West,269,0.0,3.0,100,0.51,,,2.07,,2013-08-09 20:02:00,
2013-08-09 16:22:00,68.0,68.0,30.00,WNW,300,0.0,5.0,100,0.52,,,2.07,,2013-08-09 20:22:00,
2013-08-09 16:43:00,69.0,69.0,29.99,WNW,300,1.0,9.0,100,0.01,,,2.01,,2013-08-09 20:43:00,
2013-08-09 16:52:00,69.0,69.0,29.99,WNW,300,1.0,9.0,100,0.01,,,2.01,,2013-08-09 20:52:00,
2013-08-09 17:02:00,69.0,69.0,29.99,WNW,300,1.0,9.0,100,0.01,,,2.01,,2013-08-09 21:02:00,
2013-08-09 17:33:00,68.0,68.0,30.01,WNW,285,7.0,14.0,100,0.15,,,2.16,,2013-08-09 21:33:00,
2013-08-09 17:52:00,68.0,68.0,30.00,NW,321,2.0,6.0,100,0.10,,,2.20,,2013-08-09 21:52:00,
2013-08-09 18:02:00,68.0,68.0,30.01,SSE,165,0.0,11.0,100,0.07,,,2.21,,2013-08-09 22:02:00,
2013-08-09 18:11:00,68.0,68.0,30.01,SSE,165,0.0,11.0,100,0.07,,,2.21,,2013-08-09 22:11:00,
2013-08-09 18:22:00,68.0,68.0,30.01,SSE,165,0.0,11.0,100,0.07,,,2.21,,2013-08-09 22:22:00,
2013-08-09 18:32:00,68.0,68.0,30.01,SSE,165,0.0,11.0,100,0.07,,,2.21,,2013-08-09 22:32:00,
2013-08-09 18:52:00,69.0,69.0,30.00,NW,309,7.0,8.0,100,0.01,,,2.20,,2013-08-09 22:52:00,
2013-08-09 19:02:00,69.0,69.0,30.00,NW,309,7.0,8.0,100,0.01,,,2.20,,2013-08-09 23:02:00,
2013-08-09 19:22:00,69.0,69.0,30.01,West,267,1.0,6.0,100,0.00,,,2.20,,2013-08-09 23:22:00,
2013-08-09 19:32:00,69.0,69.0,30.01,West,267,1.0,6.0,100,0.00,,,2.20,,2013-08-09 23:32:00,
2013-08-09 19:52:00,68.0,68.0,30.02,West,279,0.0,7.0,100,0.02,,,2.22,,2013-08-09 23:52:00,
2013-08-09 20:02:00,68.0,68.0,30.02,West,279,0.0,7.0,100,0.02,,,2.22,,2013-08-10 00:02:00,
2013-08-09 20:22:00,68.0,68.0,30.02,West,279,0.0,7.0,100,0.02,,,2.22,,2013-08-10 00:22:00,
2013-08-09 20:33:00,68.0,68.0,30.02,West,279,0.0,7.0,100,0.02,,,2.22,,2013-08-10 00:33:00,
2013-08-09 21:11:00,67.0,67.0,30.04,WSW,237,2.0,6.0,100,0.00,,,2.22,,2013-08-10 01:11:00,
2013-08-09 21:22:00,67.0,67.0,30.04,WSW,237,2.0,6.0,100,0.00,,,2.22,,2013-08-10 01:22:00,
2013-08-09 21:32:00,67.0,67.0,30.04,NW,306,4.0,6.0,100,0.00,,,2.22,,2013-08-10 01:32:00,
2013-08-09 21:42:00,67.0,67.0,30.04,NW,306,4.0,6.0,100,0.00,,,2.22,,2013-08-10 01:42:00,
2013-08-09 21:52:00,67.0,67.0,30.04,NW,306,4.0,6.0,100,0.00,,,2.22,,2013-08-10 01:52:00,
2013-08-09 22:03:00,67.0,67.0,30.04,NW,306,4.0,6.0,100,0.00,,,2.22,,2013-08-10 02:03:00,
2013-08-09 22:42:00,67.0,67.0,30.06,WNW,286,0.0,11.0,100,0.00,,,1.83,,2013-08-10 02:42:00,
2013-08-09 22:52:00,67.0,67.0,30.06,WNW,286,0.0,11.0,100,0.00,,,1.83,,2013-08-10 02:52:00,
2013-08-09 23:01:00,67.0,67.0,30.06,WNW,286,0.0,11.0,100,0.00,,,1.83,,2013-08-10 03:01:00,
2013-08-09 23:11:00,67.0,67.0,30.06,WNW,286,0.0,11.0,100,0.00,,,1.83,,2013-08-10 03:11:00,
2013-08-09 23:22:00,67.0,67.0,30.06,WNW,286,0.0,11.0,100,0.00,,,1.83,,2013-08-10 03:22:00,
2013-08-09 23:42:00,66.0,66.0,30.07,NNW,332,12.0,12.0,100,0.00,,,1.81,,2013-08-10 03:42:00,
2013-08-09 23:52:00,66.0,66.0,30.07,NNW,332,12.0,12.0,100,0.00,,,1.81,,2013-08-10 03:52:00,